sensor_id;sensor_type;location;lat;lon;timestamp;temperature;humidity
70154;DHT22;57519;51.494;-2.626;2022-09-09T00:00:23;14.93;94.63
70154;DHT22;57519;51.494;-2.626;2022-09-09T00:03:04;14.98;94.65
70154;DHT22;57519;51.494;-2.626;2022-09-09T00:05:41;15.00;94.65
70154;DHT22;57519;51.494;-2.626;2022-09-09T00:08:18;15.03;94.62
70154;DHT22;57519;51.494;-2.626;2022-09-09T00:10:45;15.05;94.59
70154;DHT22;57519;51.494;-2.626;2022-09-09T00:13:26;15.03;94.55
70154;DHT22;57519;51.494;-2.626;2022-09-09T00:16:00;15.06;94.51
70154;DHT22;57519;51.494;-2.626;2022-09-09T00:18:49;15.08;94.45
70154;DHT22;57519;51.494;-2.626;2022-09-09T00:21:18;15.10;94.32
70154;DHT22;57519;51.494;-2.626;2022-09-09T00:24:11;15.15;94.41
70154;DHT22;57519;51.494;-2.626;2022-09-09T00:26:47;15.13;94.36
70154;DHT22;57519;51.494;-2.626;2022-09-09T00:29:42;15.08;94.42
70154;DHT22;57519;51.494;-2.626;2022-09-09T00:32:13;15.08;94.40
70154;DHT22;57519;51.494;-2.626;2022-09-09T00:34:58;15.09;94.37
70154;DHT22;57519;51.494;-2.626;2022-09-09T00:37:26;15.12;94.43
70154;DHT22;57519;51.494;-2.626;2022-09-09T00:39:55;15.15;94.36
70154;DHT22;57519;51.494;-2.626;2022-09-09T00:45:45;15.16;94.36
70154;DHT22;57519;51.494;-2.626;2022-09-09T00:48:13;15.13;94.23
70154;DHT22;57519;51.494;-2.626;2022-09-09T00:50:55;15.09;94.21
70154;DHT22;57519;51.494;-2.626;2022-09-09T00:56:07;15.06;94.33
70154;DHT22;57519;51.494;-2.626;2022-09-09T00:58:34;14.99;94.34
70154;DHT22;57519;51.494;-2.626;2022-09-09T01:01:11;14.95;94.31
70154;DHT22;57519;51.494;-2.626;2022-09-09T01:03:54;14.93;94.31
70154;DHT22;57519;51.494;-2.626;2022-09-09T01:06:37;14.88;94.32
70154;DHT22;57519;51.494;-2.626;2022-09-09T01:09:22;14.81;94.25
70154;DHT22;57519;51.494;-2.626;2022-09-09T01:12:07;14.65;94.05
70154;DHT22;57519;51.494;-2.626;2022-09-09T01:20:10;14.41;94.08
70154;DHT22;57519;51.494;-2.626;2022-09-09T01:28:11;14.41;94.28
70154;DHT22;57519;51.494;-2.626;2022-09-09T01:30:40;14.36;94.26
70154;DHT22;57519;51.494;-2.626;2022-09-09T01:33:12;14.33;94.43
70154;DHT22;57519;51.494;-2.626;2022-09-09T01:35:52;14.27;94.41
70154;DHT22;57519;51.494;-2.626;2022-09-09T01:38:22;14.26;94.43
70154;DHT22;57519;51.494;-2.626;2022-09-09T01:40:49;14.27;94.54
70154;DHT22;57519;51.494;-2.626;2022-09-09T01:43:18;14.22;94.47
70154;DHT22;57519;51.494;-2.626;2022-09-09T01:45:44;14.20;94.43
70154;DHT22;57519;51.494;-2.626;2022-09-09T01:48:11;14.29;94.69
70154;DHT22;57519;51.494;-2.626;2022-09-09T01:50:37;14.33;94.70
70154;DHT22;57519;51.494;-2.626;2022-09-09T01:53:02;14.34;94.57
70154;DHT22;57519;51.494;-2.626;2022-09-09T01:55:33;14.33;94.49
70154;DHT22;57519;51.494;-2.626;2022-09-09T02:00:41;14.33;94.49
70154;DHT22;57519;51.494;-2.626;2022-09-09T02:06:10;14.43;94.61
70154;DHT22;57519;51.494;-2.626;2022-09-09T02:08:53;14.51;94.42
70154;DHT22;57519;51.494;-2.626;2022-09-09T02:11:22;14.60;94.19
70154;DHT22;57519;51.494;-2.626;2022-09-09T02:14:01;14.60;93.92
70154;DHT22;57519;51.494;-2.626;2022-09-09T02:19:01;14.67;93.75
70154;DHT22;57519;51.494;-2.626;2022-09-09T02:21:29;14.68;93.51
70154;DHT22;57519;51.494;-2.626;2022-09-09T02:23:57;14.71;93.72
70154;DHT22;57519;51.494;-2.626;2022-09-09T02:26:25;14.75;93.67
70154;DHT22;57519;51.494;-2.626;2022-09-09T02:28:53;14.80;93.67
70154;DHT22;57519;51.494;-2.626;2022-09-09T02:31:22;14.75;93.66
70154;DHT22;57519;51.494;-2.626;2022-09-09T02:33:57;14.77;93.82
70154;DHT22;57519;51.494;-2.626;2022-09-09T02:36:27;14.77;94.05
70154;DHT22;57519;51.494;-2.626;2022-09-09T02:38:54;14.74;94.15
70154;DHT22;57519;51.494;-2.626;2022-09-09T02:41:26;14.72;94.15
70154;DHT22;57519;51.494;-2.626;2022-09-09T02:43:52;14.70;94.28
70154;DHT22;57519;51.494;-2.626;2022-09-09T02:46:31;14.70;94.34
70154;DHT22;57519;51.494;-2.626;2022-09-09T02:49:18;14.72;94.43
70154;DHT22;57519;51.494;-2.626;2022-09-09T02:52:07;14.78;94.49
70154;DHT22;57519;51.494;-2.626;2022-09-09T02:54:34;14.75;94.27
70154;DHT22;57519;51.494;-2.626;2022-09-09T02:57:17;14.71;94.17
70154;DHT22;57519;51.494;-2.626;2022-09-09T02:59:44;14.74;94.23
70154;DHT22;57519;51.494;-2.626;2022-09-09T03:02:11;14.71;94.20
70154;DHT22;57519;51.494;-2.626;2022-09-09T03:04:40;14.71;94.12
70154;DHT22;57519;51.494;-2.626;2022-09-09T03:07:07;14.67;94.00
70154;DHT22;57519;51.494;-2.626;2022-09-09T03:09:32;14.67;94.08
70154;DHT22;57519;51.494;-2.626;2022-09-09T03:11:58;14.64;94.26
70154;DHT22;57519;51.494;-2.626;2022-09-09T03:14:24;14.67;94.57
70154;DHT22;57519;51.494;-2.626;2022-09-09T03:16:52;14.64;94.45
70154;DHT22;57519;51.494;-2.626;2022-09-09T03:19:18;14.65;94.48
70154;DHT22;57519;51.494;-2.626;2022-09-09T03:21:45;14.60;94.42
70154;DHT22;57519;51.494;-2.626;2022-09-09T03:24:11;14.61;94.58
70154;DHT22;57519;51.494;-2.626;2022-09-09T03:26:36;14.65;94.72
70154;DHT22;57519;51.494;-2.626;2022-09-09T03:29:06;14.65;94.79
70154;DHT22;57519;51.494;-2.626;2022-09-09T03:31:35;14.65;94.75
70154;DHT22;57519;51.494;-2.626;2022-09-09T03:34:04;14.75;94.83
70154;DHT22;57519;51.494;-2.626;2022-09-09T03:36:29;14.81;94.58
70154;DHT22;57519;51.494;-2.626;2022-09-09T03:38:55;14.80;94.18
70154;DHT22;57519;51.494;-2.626;2022-09-09T03:41:22;14.80;93.84
70154;DHT22;57519;51.494;-2.626;2022-09-09T03:43:51;14.84;93.50
70154;DHT22;57519;51.494;-2.626;2022-09-09T03:46:18;14.84;93.04
70154;DHT22;57519;51.494;-2.626;2022-09-09T03:48:43;14.88;93.09
70154;DHT22;57519;51.494;-2.626;2022-09-09T03:51:09;14.87;92.70
70154;DHT22;57519;51.494;-2.626;2022-09-09T03:53:35;14.89;92.60
70154;DHT22;57519;51.494;-2.626;2022-09-09T03:56:03;14.92;92.36
70154;DHT22;57519;51.494;-2.626;2022-09-09T03:58:29;14.96;92.45
70154;DHT22;57519;51.494;-2.626;2022-09-09T04:01:09;14.99;91.82
70154;DHT22;57519;51.494;-2.626;2022-09-09T04:03:35;15.02;91.57
70154;DHT22;57519;51.494;-2.626;2022-09-09T04:06:02;15.05;91.04
70154;DHT22;57519;51.494;-2.626;2022-09-09T04:08:28;15.02;91.31
70154;DHT22;57519;51.494;-2.626;2022-09-09T04:10:56;15.00;91.34
70154;DHT22;57519;51.494;-2.626;2022-09-09T04:13:24;15.05;91.15
70154;DHT22;57519;51.494;-2.626;2022-09-09T04:15:55;15.02;91.18
70154;DHT22;57519;51.494;-2.626;2022-09-09T04:18:21;15.03;91.37
70154;DHT22;57519;51.494;-2.626;2022-09-09T04:20:48;15.02;91.02
70154;DHT22;57519;51.494;-2.626;2022-09-09T04:23:16;15.09;90.50
70154;DHT22;57519;51.494;-2.626;2022-09-09T04:25:46;15.10;90.23
70154;DHT22;57519;51.494;-2.626;2022-09-09T04:28:13;15.09;90.51
70154;DHT22;57519;51.494;-2.626;2022-09-09T04:30:38;15.05;90.42
70154;DHT22;57519;51.494;-2.626;2022-09-09T04:33:05;15.05;90.44
70154;DHT22;57519;51.494;-2.626;2022-09-09T04:35:31;15.06;89.68
70154;DHT22;57519;51.494;-2.626;2022-09-09T04:37:57;15.13;88.84
70154;DHT22;57519;51.494;-2.626;2022-09-09T04:40:22;15.15;88.60
70154;DHT22;57519;51.494;-2.626;2022-09-09T04:42:48;15.16;88.00
70154;DHT22;57519;51.494;-2.626;2022-09-09T04:45:14;15.18;88.16
70154;DHT22;57519;51.494;-2.626;2022-09-09T04:47:40;15.15;87.67
70154;DHT22;57519;51.494;-2.626;2022-09-09T04:50:06;15.10;88.39
70154;DHT22;57519;51.494;-2.626;2022-09-09T04:52:34;15.15;87.87
70154;DHT22;57519;51.494;-2.626;2022-09-09T04:54:59;15.12;88.58
70154;DHT22;57519;51.494;-2.626;2022-09-09T04:57:25;15.09;88.25
70154;DHT22;57519;51.494;-2.626;2022-09-09T04:59:51;15.10;87.53
70154;DHT22;57519;51.494;-2.626;2022-09-09T05:02:17;15.10;87.39
70154;DHT22;57519;51.494;-2.626;2022-09-09T05:04:43;15.13;87.43
70154;DHT22;57519;51.494;-2.626;2022-09-09T05:07:08;15.15;87.15
70154;DHT22;57519;51.494;-2.626;2022-09-09T05:09:34;15.18;87.20
70154;DHT22;57519;51.494;-2.626;2022-09-09T05:11:59;15.16;87.67
70154;DHT22;57519;51.494;-2.626;2022-09-09T05:14:25;15.13;87.48
70154;DHT22;57519;51.494;-2.626;2022-09-09T05:16:51;15.13;87.76
70154;DHT22;57519;51.494;-2.626;2022-09-09T05:19:17;15.10;87.86
70154;DHT22;57519;51.494;-2.626;2022-09-09T05:21:44;15.05;87.93
70154;DHT22;57519;51.494;-2.626;2022-09-09T05:24:10;15.08;87.46
70154;DHT22;57519;51.494;-2.626;2022-09-09T05:26:36;15.05;87.43
70154;DHT22;57519;51.494;-2.626;2022-09-09T05:29:01;15.05;87.37
70154;DHT22;57519;51.494;-2.626;2022-09-09T05:31:29;15.06;87.43
70154;DHT22;57519;51.494;-2.626;2022-09-09T05:33:55;15.03;87.65
70154;DHT22;57519;51.494;-2.626;2022-09-09T05:36:22;15.06;87.95
70154;DHT22;57519;51.494;-2.626;2022-09-09T05:38:48;15.06;87.70
70154;DHT22;57519;51.494;-2.626;2022-09-09T05:41:14;15.03;87.73
70154;DHT22;57519;51.494;-2.626;2022-09-09T05:43:43;15.08;87.51
70154;DHT22;57519;51.494;-2.626;2022-09-09T05:46:12;15.06;87.05
70154;DHT22;57519;51.494;-2.626;2022-09-09T05:48:40;15.06;87.21
70154;DHT22;57519;51.494;-2.626;2022-09-09T05:51:07;15.09;87.26
70154;DHT22;57519;51.494;-2.626;2022-09-09T05:53:33;15.12;87.55
70154;DHT22;57519;51.494;-2.626;2022-09-09T05:56:11;15.15;87.27
70154;DHT22;57519;51.494;-2.626;2022-09-09T05:58:37;15.10;87.23
70154;DHT22;57519;51.494;-2.626;2022-09-09T06:01:14;15.15;87.02
70154;DHT22;57519;51.494;-2.626;2022-09-09T06:03:41;15.16;86.68
70154;DHT22;57519;51.494;-2.626;2022-09-09T06:06:11;15.18;86.85
70154;DHT22;57519;51.494;-2.626;2022-09-09T06:08:39;15.19;87.04
70154;DHT22;57519;51.494;-2.626;2022-09-09T06:13:44;15.27;86.79
70154;DHT22;57519;51.494;-2.626;2022-09-09T06:16:15;15.30;86.68
70154;DHT22;57519;51.494;-2.626;2022-09-09T06:18:41;15.33;85.98
70154;DHT22;57519;51.494;-2.626;2022-09-09T06:21:11;15.36;85.81
70154;DHT22;57519;51.494;-2.626;2022-09-09T06:23:39;15.37;86.15
70154;DHT22;57519;51.494;-2.626;2022-09-09T06:26:15;15.37;86.46
70154;DHT22;57519;51.494;-2.626;2022-09-09T06:28:42;15.36;86.85
70154;DHT22;57519;51.494;-2.626;2022-09-09T06:31:10;15.35;87.07
70154;DHT22;57519;51.494;-2.626;2022-09-09T06:33:38;15.39;86.62
70154;DHT22;57519;51.494;-2.626;2022-09-09T06:36:28;15.40;86.70
70154;DHT22;57519;51.494;-2.626;2022-09-09T06:38:52;15.44;87.08
70154;DHT22;57519;51.494;-2.626;2022-09-09T06:41:20;15.51;86.76
70154;DHT22;57519;51.494;-2.626;2022-09-09T06:43:46;15.58;86.97
70154;DHT22;57519;51.494;-2.626;2022-09-09T06:46:17;15.63;86.19
70154;DHT22;57519;51.494;-2.626;2022-09-09T06:48:44;15.66;86.56
70154;DHT22;57519;51.494;-2.626;2022-09-09T06:51:18;15.70;85.94
70154;DHT22;57519;51.494;-2.626;2022-09-09T06:53:46;15.71;85.70
70154;DHT22;57519;51.494;-2.626;2022-09-09T06:56:36;15.77;85.51
70154;DHT22;57519;51.494;-2.626;2022-09-09T06:59:06;15.84;85.08
70154;DHT22;57519;51.494;-2.626;2022-09-09T07:01:39;15.80;83.49
70154;DHT22;57519;51.494;-2.626;2022-09-09T07:04:09;15.84;83.31
70154;DHT22;57519;51.494;-2.626;2022-09-09T07:06:38;15.90;83.41
70154;DHT22;57519;51.494;-2.626;2022-09-09T07:09:10;15.93;83.06
70154;DHT22;57519;51.494;-2.626;2022-09-09T07:11:40;15.97;82.36
70154;DHT22;57519;51.494;-2.626;2022-09-09T07:14:09;16.06;82.69
70154;DHT22;57519;51.494;-2.626;2022-09-09T07:16:36;16.15;82.29
70154;DHT22;57519;51.494;-2.626;2022-09-09T07:19:03;16.22;81.01
70154;DHT22;57519;51.494;-2.626;2022-09-09T07:21:30;16.29;80.90
70154;DHT22;57519;51.494;-2.626;2022-09-09T07:23:56;16.38;80.50
70154;DHT22;57519;51.494;-2.626;2022-09-09T07:26:24;16.46;80.93
70154;DHT22;57519;51.494;-2.626;2022-09-09T07:28:50;16.50;80.36
70154;DHT22;57519;51.494;-2.626;2022-09-09T07:31:21;16.56;80.07
70154;DHT22;57519;51.494;-2.626;2022-09-09T07:33:48;16.69;80.15
70154;DHT22;57519;51.494;-2.626;2022-09-09T07:36:33;16.74;79.92
70154;DHT22;57519;51.494;-2.626;2022-09-09T07:39:04;16.71;79.41
70154;DHT22;57519;51.494;-2.626;2022-09-09T07:41:38;16.77;80.31
70154;DHT22;57519;51.494;-2.626;2022-09-09T07:44:07;16.87;78.85
70154;DHT22;57519;51.494;-2.626;2022-09-09T07:46:34;16.85;79.00
70154;DHT22;57519;51.494;-2.626;2022-09-09T07:49:01;16.84;78.18
70154;DHT22;57519;51.494;-2.626;2022-09-09T07:51:30;17.04;78.47
70154;DHT22;57519;51.494;-2.626;2022-09-09T07:53:57;17.06;78.80
70154;DHT22;57519;51.494;-2.626;2022-09-09T07:56:24;17.04;79.23
70154;DHT22;57519;51.494;-2.626;2022-09-09T07:58:52;17.12;78.64
70154;DHT22;57519;51.494;-2.626;2022-09-09T08:01:23;17.29;78.57
70154;DHT22;57519;51.494;-2.626;2022-09-09T08:04:06;17.28;77.55
70154;DHT22;57519;51.494;-2.626;2022-09-09T08:06:35;17.36;77.47
70154;DHT22;57519;51.494;-2.626;2022-09-09T08:09:02;17.38;77.88
70154;DHT22;57519;51.494;-2.626;2022-09-09T08:11:29;17.38;76.96
70154;DHT22;57519;51.494;-2.626;2022-09-09T08:13:55;17.39;77.63
70154;DHT22;57519;51.494;-2.626;2022-09-09T08:16:27;17.24;76.49
70154;DHT22;57519;51.494;-2.626;2022-09-09T08:18:56;17.06;77.31
70154;DHT22;57519;51.494;-2.626;2022-09-09T08:21:30;17.07;77.87
70154;DHT22;57519;51.494;-2.626;2022-09-09T08:23:57;16.95;78.20
70154;DHT22;57519;51.494;-2.626;2022-09-09T08:26:29;16.98;78.33
70154;DHT22;57519;51.494;-2.626;2022-09-09T08:28:56;17.00;79.10
70154;DHT22;57519;51.494;-2.626;2022-09-09T08:31:29;16.84;78.29
70154;DHT22;57519;51.494;-2.626;2022-09-09T08:33:56;16.69;78.92
70154;DHT22;57519;51.494;-2.626;2022-09-09T08:36:24;16.62;79.41
70154;DHT22;57519;51.494;-2.626;2022-09-09T08:38:52;16.49;79.52
70154;DHT22;57519;51.494;-2.626;2022-09-09T08:41:29;16.48;79.78
70154;DHT22;57519;51.494;-2.626;2022-09-09T08:47:32;16.62;79.30
70154;DHT22;57519;51.494;-2.626;2022-09-09T08:50:05;16.74;79.02
70154;DHT22;57519;51.494;-2.626;2022-09-09T08:52:54;16.92;79.04
70154;DHT22;57519;51.494;-2.626;2022-09-09T08:55:41;16.88;78.22
70154;DHT22;57519;51.494;-2.626;2022-09-09T08:58:17;16.97;78.52
70154;DHT22;57519;51.494;-2.626;2022-09-09T09:08:47;17.11;79.06
70154;DHT22;57519;51.494;-2.626;2022-09-09T09:11:18;17.18;78.63
70154;DHT22;57519;51.494;-2.626;2022-09-09T09:13:54;17.21;78.12
70154;DHT22;57519;51.494;-2.626;2022-09-09T09:16:30;17.21;78.01
70154;DHT22;57519;51.494;-2.626;2022-09-09T09:18:59;17.04;77.95
70154;DHT22;57519;51.494;-2.626;2022-09-09T09:23:59;17.06;78.50
70154;DHT22;57519;51.494;-2.626;2022-09-09T09:26:30;17.04;77.87
70154;DHT22;57519;51.494;-2.626;2022-09-09T09:28:56;17.10;77.09
70154;DHT22;57519;51.494;-2.626;2022-09-09T09:31:24;16.94;77.15
70154;DHT22;57519;51.494;-2.626;2022-09-09T09:33:55;16.84;77.51
70154;DHT22;57519;51.494;-2.626;2022-09-09T09:36:33;16.76;77.61
70154;DHT22;57519;51.494;-2.626;2022-09-09T09:39:00;16.71;78.40
70154;DHT22;57519;51.494;-2.626;2022-09-09T09:41:38;16.69;79.17
70154;DHT22;57519;51.494;-2.626;2022-09-09T09:44:05;16.66;79.58
70154;DHT22;57519;51.494;-2.626;2022-09-09T09:46:32;16.60;79.02
70154;DHT22;57519;51.494;-2.626;2022-09-09T09:49:05;16.62;79.26
70154;DHT22;57519;51.494;-2.626;2022-09-09T09:51:34;16.73;79.17
70154;DHT22;57519;51.494;-2.626;2022-09-09T09:54:27;16.79;79.67
70154;DHT22;57519;51.494;-2.626;2022-09-09T09:56:54;16.87;78.36
70154;DHT22;57519;51.494;-2.626;2022-09-09T09:59:33;17.00;78.97
70154;DHT22;57519;51.494;-2.626;2022-09-09T10:04:43;16.90;79.26
70154;DHT22;57519;51.494;-2.626;2022-09-09T10:07:20;16.85;80.17
70154;DHT22;57519;51.494;-2.626;2022-09-09T10:09:54;16.88;79.84
70154;DHT22;57519;51.494;-2.626;2022-09-09T10:25:36;16.90;82.21
70154;DHT22;57519;51.494;-2.626;2022-09-09T10:36:25;16.97;82.14
70154;DHT22;57519;51.494;-2.626;2022-09-09T10:39:04;17.21;81.97
70154;DHT22;57519;51.494;-2.626;2022-09-09T10:41:47;17.31;81.50
70154;DHT22;57519;51.494;-2.626;2022-09-09T10:50:15;18.13;79.19
70154;DHT22;57519;51.494;-2.626;2022-09-09T10:55:43;18.34;77.86
70154;DHT22;57519;51.494;-2.626;2022-09-09T10:58:23;18.35;76.32
70154;DHT22;57519;51.494;-2.626;2022-09-09T11:00:57;18.49;76.34
70154;DHT22;57519;51.494;-2.626;2022-09-09T11:03:28;18.75;77.08
70154;DHT22;57519;51.494;-2.626;2022-09-09T11:06:04;18.63;76.96
70154;DHT22;57519;51.494;-2.626;2022-09-09T11:08:32;18.79;76.42
70154;DHT22;57519;51.494;-2.626;2022-09-09T11:13:55;18.88;75.57
70154;DHT22;57519;51.494;-2.626;2022-09-09T11:21:53;19.02;76.66
70154;DHT22;57519;51.494;-2.626;2022-09-09T11:29:37;19.37;75.68
70154;DHT22;57519;51.494;-2.626;2022-09-09T11:41:01;19.97;72.94
70154;DHT22;57519;51.494;-2.626;2022-09-09T11:43:54;20.17;71.37
70154;DHT22;57519;51.494;-2.626;2022-09-09T11:46:21;20.27;71.29
70154;DHT22;57519;51.494;-2.626;2022-09-09T11:48:59;19.82;71.51
70154;DHT22;57519;51.494;-2.626;2022-09-09T11:51:26;19.83;72.21
70154;DHT22;57519;51.494;-2.626;2022-09-09T11:54:01;19.92;71.76
70154;DHT22;57519;51.494;-2.626;2022-09-09T11:56:34;20.10;72.08
70154;DHT22;57519;51.494;-2.626;2022-09-09T11:59:20;20.08;72.01
70154;DHT22;57519;51.494;-2.626;2022-09-09T12:04:39;20.50;71.80
70154;DHT22;57519;51.494;-2.626;2022-09-09T12:09:55;20.12;72.36
70154;DHT22;57519;51.494;-2.626;2022-09-09T12:12:37;19.85;72.96
70154;DHT22;57519;51.494;-2.626;2022-09-09T12:17:45;19.68;73.82
70154;DHT22;57519;51.494;-2.626;2022-09-09T12:20:31;19.32;74.06
70154;DHT22;57519;51.494;-2.626;2022-09-09T12:23:33;19.47;73.79
70154;DHT22;57519;51.494;-2.626;2022-09-09T12:32:10;19.28;75.31
70154;DHT22;57519;51.494;-2.626;2022-09-09T12:34:41;19.24;76.12
70154;DHT22;57519;51.494;-2.626;2022-09-09T12:40:00;18.96;77.15
70154;DHT22;57519;51.494;-2.626;2022-09-09T12:42:28;18.59;78.75
70154;DHT22;57519;51.494;-2.626;2022-09-09T12:45:02;18.49;80.45
70154;DHT22;57519;51.494;-2.626;2022-09-09T12:50:21;18.65;82.15
70154;DHT22;57519;51.494;-2.626;2022-09-09T12:52:58;18.73;80.52
70154;DHT22;57519;51.494;-2.626;2022-09-09T12:55:28;18.52;80.21
70154;DHT22;57519;51.494;-2.626;2022-09-09T12:57:55;18.40;81.41
70154;DHT22;57519;51.494;-2.626;2022-09-09T13:00:23;18.35;81.67
70154;DHT22;57519;51.494;-2.626;2022-09-09T13:03:13;18.30;83.71
70154;DHT22;57519;51.494;-2.626;2022-09-09T13:05:41;18.01;82.99
70154;DHT22;57519;51.494;-2.626;2022-09-09T13:08:12;18.15;83.41
70154;DHT22;57519;51.494;-2.626;2022-09-09T13:11:01;18.17;83.09
70154;DHT22;57519;51.494;-2.626;2022-09-09T13:13:38;18.31;83.50
70154;DHT22;57519;51.494;-2.626;2022-09-09T13:16:07;18.61;83.17
70154;DHT22;57519;51.494;-2.626;2022-09-09T13:18:41;18.79;83.57
70154;DHT22;57519;51.494;-2.626;2022-09-09T13:21:07;19.02;80.60
70154;DHT22;57519;51.494;-2.626;2022-09-09T13:23:37;19.47;79.18
70154;DHT22;57519;51.494;-2.626;2022-09-09T13:26:23;19.61;78.94
70154;DHT22;57519;51.494;-2.626;2022-09-09T13:28:49;19.66;77.92
70154;DHT22;57519;51.494;-2.626;2022-09-09T13:31:29;19.58;77.43
70154;DHT22;57519;51.494;-2.626;2022-09-09T13:33:58;19.59;78.43
70154;DHT22;57519;51.494;-2.626;2022-09-09T13:36:31;19.45;76.86
70154;DHT22;57519;51.494;-2.626;2022-09-09T13:38:58;19.21;77.07
70154;DHT22;57519;51.494;-2.626;2022-09-09T13:41:36;19.26;77.01
70154;DHT22;57519;51.494;-2.626;2022-09-09T13:44:19;19.51;78.62
70154;DHT22;57519;51.494;-2.626;2022-09-09T13:46:45;19.59;77.22
70154;DHT22;57519;51.494;-2.626;2022-09-09T13:51:41;19.99;75.06
70154;DHT22;57519;51.494;-2.626;2022-09-09T13:54:11;20.29;74.99
70154;DHT22;57519;51.494;-2.626;2022-09-09T13:56:38;20.47;73.31
70154;DHT22;57519;51.494;-2.626;2022-09-09T13:59:09;20.47;73.41
70154;DHT22;57519;51.494;-2.626;2022-09-09T14:01:35;20.32;74.28
70154;DHT22;57519;51.494;-2.626;2022-09-09T14:04:02;20.16;74.89
70154;DHT22;57519;51.494;-2.626;2022-09-09T14:06:27;20.12;75.28
70154;DHT22;57519;51.494;-2.626;2022-09-09T14:08:54;19.93;75.28
70154;DHT22;57519;51.494;-2.626;2022-09-09T14:11:20;19.92;74.18
70154;DHT22;57519;51.494;-2.626;2022-09-09T14:13:47;20.13;73.64
70154;DHT22;57519;51.494;-2.626;2022-09-09T14:16:12;19.90;74.78
70154;DHT22;57519;51.494;-2.626;2022-09-09T14:18:38;20.02;75.00
70154;DHT22;57519;51.494;-2.626;2022-09-09T14:21:04;20.14;74.67
70154;DHT22;57519;51.494;-2.626;2022-09-09T14:23:30;20.05;73.50
70154;DHT22;57519;51.494;-2.626;2022-09-09T14:25:58;20.27;73.63
70154;DHT22;57519;51.494;-2.626;2022-09-09T14:28:23;20.24;73.24
70154;DHT22;57519;51.494;-2.626;2022-09-09T14:30:50;20.33;73.11
70154;DHT22;57519;51.494;-2.626;2022-09-09T14:33:16;20.36;73.45
70154;DHT22;57519;51.494;-2.626;2022-09-09T14:35:42;20.37;73.57
70154;DHT22;57519;51.494;-2.626;2022-09-09T14:38:09;20.47;72.97
70154;DHT22;57519;51.494;-2.626;2022-09-09T14:40:36;20.85;73.11
70154;DHT22;57519;51.494;-2.626;2022-09-09T14:43:02;21.18;71.57
70154;DHT22;57519;51.494;-2.626;2022-09-09T14:45:28;20.80;71.37
70154;DHT22;57519;51.494;-2.626;2022-09-09T14:47:54;20.51;72.02
70154;DHT22;57519;51.494;-2.626;2022-09-09T14:50:21;20.47;73.03
70154;DHT22;57519;51.494;-2.626;2022-09-09T14:52:47;20.40;71.52
70154;DHT22;57519;51.494;-2.626;2022-09-09T14:55:12;20.39;71.70
70154;DHT22;57519;51.494;-2.626;2022-09-09T14:57:38;20.51;72.66
70154;DHT22;57519;51.494;-2.626;2022-09-09T15:00:06;20.34;73.35
70154;DHT22;57519;51.494;-2.626;2022-09-09T15:02:32;20.23;73.81
70154;DHT22;57519;51.494;-2.626;2022-09-09T15:04:58;20.10;73.25
70154;DHT22;57519;51.494;-2.626;2022-09-09T15:07:27;19.96;73.79
70154;DHT22;57519;51.494;-2.626;2022-09-09T15:09:54;20.05;74.00
70154;DHT22;57519;51.494;-2.626;2022-09-09T15:12:19;20.23;72.95
70154;DHT22;57519;51.494;-2.626;2022-09-09T15:14:46;20.50;71.77
70154;DHT22;57519;51.494;-2.626;2022-09-09T15:17:14;20.48;70.99
70154;DHT22;57519;51.494;-2.626;2022-09-09T15:19:40;20.48;71.70
70154;DHT22;57519;51.494;-2.626;2022-09-09T15:22:09;20.43;71.81
70154;DHT22;57519;51.494;-2.626;2022-09-09T15:24:35;20.23;71.98
70154;DHT22;57519;51.494;-2.626;2022-09-09T15:27:01;20.24;72.70
70154;DHT22;57519;51.494;-2.626;2022-09-09T15:29:26;20.16;72.56
70154;DHT22;57519;51.494;-2.626;2022-09-09T15:31:55;19.99;74.00
70154;DHT22;57519;51.494;-2.626;2022-09-09T15:34:21;20.08;73.98
70154;DHT22;57519;51.494;-2.626;2022-09-09T15:36:46;20.45;73.58
70154;DHT22;57519;51.494;-2.626;2022-09-09T15:39:15;20.40;72.69
70154;DHT22;57519;51.494;-2.626;2022-09-09T15:41:47;20.43;73.01
70154;DHT22;57519;51.494;-2.626;2022-09-09T15:44:13;20.32;73.61
70154;DHT22;57519;51.494;-2.626;2022-09-09T15:46:44;20.52;72.72
70154;DHT22;57519;51.494;-2.626;2022-09-09T15:49:10;20.72;71.53
70154;DHT22;57519;51.494;-2.626;2022-09-09T15:51:37;20.48;71.61
70154;DHT22;57519;51.494;-2.626;2022-09-09T15:54:04;20.34;72.31
70154;DHT22;57519;51.494;-2.626;2022-09-09T15:56:30;20.41;72.65
70154;DHT22;57519;51.494;-2.626;2022-09-09T15:58:58;20.30;73.05
70154;DHT22;57519;51.494;-2.626;2022-09-09T16:01:24;20.10;73.82
70154;DHT22;57519;51.494;-2.626;2022-09-09T16:03:50;19.87;73.58
70154;DHT22;57519;51.494;-2.626;2022-09-09T16:06:21;19.83;73.84
70154;DHT22;57519;51.494;-2.626;2022-09-09T16:08:49;19.74;74.20
70154;DHT22;57519;51.494;-2.626;2022-09-09T16:11:31;19.68;74.53
70154;DHT22;57519;51.494;-2.626;2022-09-09T16:13:58;19.89;74.50
70154;DHT22;57519;51.494;-2.626;2022-09-09T16:16:26;19.83;74.36
70154;DHT22;57519;51.494;-2.626;2022-09-09T16:18:57;20.03;73.50
70154;DHT22;57519;51.494;-2.626;2022-09-09T16:21:28;20.34;71.91
70154;DHT22;57519;51.494;-2.626;2022-09-09T16:23:55;20.47;70.80
70154;DHT22;57519;51.494;-2.626;2022-09-09T16:26:21;20.54;71.28
70154;DHT22;57519;51.494;-2.626;2022-09-09T16:28:49;20.43;71.30
70154;DHT22;57519;51.494;-2.626;2022-09-09T16:31:20;20.37;71.91
70154;DHT22;57519;51.494;-2.626;2022-09-09T16:33:46;20.33;71.54
70154;DHT22;57519;51.494;-2.626;2022-09-09T16:36:14;20.23;71.92
70154;DHT22;57519;51.494;-2.626;2022-09-09T16:38:40;20.22;72.06
70154;DHT22;57519;51.494;-2.626;2022-09-09T16:41:09;20.20;72.66
70154;DHT22;57519;51.494;-2.626;2022-09-09T16:43:35;20.09;72.74
70154;DHT22;57519;51.494;-2.626;2022-09-09T16:46:18;19.97;73.57
70154;DHT22;57519;51.494;-2.626;2022-09-09T16:48:45;19.82;74.11
70154;DHT22;57519;51.494;-2.626;2022-09-09T16:51:18;19.74;74.61
70154;DHT22;57519;51.494;-2.626;2022-09-09T16:53:44;19.66;74.80
70154;DHT22;57519;51.494;-2.626;2022-09-09T16:56:19;19.62;74.86
70154;DHT22;57519;51.494;-2.626;2022-09-09T16:58:50;19.53;75.48
70154;DHT22;57519;51.494;-2.626;2022-09-09T17:01:16;19.50;75.46
70154;DHT22;57519;51.494;-2.626;2022-09-09T17:03:42;19.41;75.72
70154;DHT22;57519;51.494;-2.626;2022-09-09T17:06:12;19.30;76.33
70154;DHT22;57519;51.494;-2.626;2022-09-09T17:08:41;19.34;78.53
70154;DHT22;57519;51.494;-2.626;2022-09-09T17:11:19;19.04;81.46
70154;DHT22;57519;51.494;-2.626;2022-09-09T17:13:46;18.83;83.12
70154;DHT22;57519;51.494;-2.626;2022-09-09T17:16:13;18.69;84.42
70154;DHT22;57519;51.494;-2.626;2022-09-09T17:18:39;18.56;84.91
70154;DHT22;57519;51.494;-2.626;2022-09-09T17:21:11;18.42;85.32
70154;DHT22;57519;51.494;-2.626;2022-09-09T17:23:38;18.32;85.90
70154;DHT22;57519;51.494;-2.626;2022-09-09T17:26:08;18.31;86.16
70154;DHT22;57519;51.494;-2.626;2022-09-09T17:28:35;18.23;86.22
70154;DHT22;57519;51.494;-2.626;2022-09-09T17:31:01;18.15;86.24
70154;DHT22;57519;51.494;-2.626;2022-09-09T17:33:32;18.14;87.22